sensor_id;sensor_type;location;lat;lon;timestamp;P1;durP1;ratioP1;P2;durP2;ratioP2
11100;SDS011;5604;50.722;7.078;2022-12-18T00:02:33;25.27;;;14.87;;
11100;SDS011;5604;50.722;7.078;2022-12-18T00:17:16;21.43;;;13.77;;
11100;SDS011;5604;50.722;7.078;2022-12-18T00:20:19;25.30;;;14.10;;
11100;SDS011;5604;50.722;7.078;2022-12-18T00:23:38;24.77;;;15.70;;
11100;SDS011;5604;50.722;7.078;2022-12-18T00:27:04;30.13;;;15.90;;
11100;SDS011;5604;50.722;7.078;2022-12-18T00:30:16;28.40;;;16.13;;
11100;SDS011;5604;50.722;7.078;2022-12-18T00:32:55;30.77;;;17.43;;
11100;SDS011;5604;50.722;7.078;2022-12-18T00:35:57;34.03;;;18.70;;
11100;SDS011;5604;50.722;7.078;2022-12-18T00:39:08;31.00;;;18.97;;
11100;SDS011;5604;50.722;7.078;2022-12-18T00:41:47;33.23;;;18.77;;
11100;SDS011;5604;50.722;7.078;2022-12-18T00:45:24;28.93;;;17.77;;
11100;SDS011;5604;50.722;7.078;2022-12-18T00:47:54;34.50;;;19.20;;
11100;SDS011;5604;50.722;7.078;2022-12-18T00:51:48;30.40;;;17.67;;
11100;SDS011;5604;50.722;7.078;2022-12-18T00:58:56;27.13;;;16.43;;
11100;SDS011;5604;50.722;7.078;2022-12-18T01:01:26;25.57;;;16.87;;
11100;SDS011;5604;50.722;7.078;2022-12-18T01:03:57;29.37;;;17.20;;
11100;SDS011;5604;50.722;7.078;2022-12-18T01:06:27;33.43;;;18.40;;
11100;SDS011;5604;50.722;7.078;2022-12-18T01:08:55;30.60;;;18.20;;
11100;SDS011;5604;50.722;7.078;2022-12-18T01:11:24;25.33;;;15.97;;
11100;SDS011;5604;50.722;7.078;2022-12-18T01:13:52;32.67;;;17.00;;
11100;SDS011;5604;50.722;7.078;2022-12-18T01:16:21;27.93;;;17.63;;
11100;SDS011;5604;50.722;7.078;2022-12-18T01:18:52;32.33;;;18.30;;
11100;SDS011;5604;50.722;7.078;2022-12-18T01:24:39;30.90;;;17.97;;
11100;SDS011;5604;50.722;7.078;2022-12-18T01:27:19;30.13;;;18.33;;
11100;SDS011;5604;50.722;7.078;2022-12-18T01:29:50;37.80;;;18.80;;
11100;SDS011;5604;50.722;7.078;2022-12-18T01:32:18;31.00;;;19.43;;
11100;SDS011;5604;50.722;7.078;2022-12-18T01:34:48;34.97;;;18.90;;
11100;SDS011;5604;50.722;7.078;2022-12-18T01:37:16;32.87;;;19.00;;
11100;SDS011;5604;50.722;7.078;2022-12-18T01:39:44;30.60;;;17.60;;
11100;SDS011;5604;50.722;7.078;2022-12-18T01:42:13;31.40;;;17.93;;
11100;SDS011;5604;50.722;7.078;2022-12-18T02:03:08;32.43;;;18.17;;
11100;SDS011;5604;50.722;7.078;2022-12-18T02:06:02;34.93;;;18.80;;
11100;SDS011;5604;50.722;7.078;2022-12-18T02:08:37;35.20;;;17.30;;
11100;SDS011;5604;50.722;7.078;2022-12-18T02:11:10;31.23;;;17.83;;
11100;SDS011;5604;50.722;7.078;2022-12-18T02:13:43;31.30;;;18.93;;
11100;SDS011;5604;50.722;7.078;2022-12-18T02:16:17;32.57;;;18.47;;
11100;SDS011;5604;50.722;7.078;2022-12-18T02:18:51;32.80;;;19.00;;
11100;SDS011;5604;50.722;7.078;2022-12-18T02:21:27;30.47;;;18.23;;
11100;SDS011;5604;50.722;7.078;2022-12-18T02:24:02;31.70;;;18.50;;
11100;SDS011;5604;50.722;7.078;2022-12-18T02:26:41;28.17;;;16.40;;
11100;SDS011;5604;50.722;7.078;2022-12-18T02:29:13;30.50;;;17.67;;
11100;SDS011;5604;50.722;7.078;2022-12-18T02:31:45;30.77;;;18.50;;
11100;SDS011;5604;50.722;7.078;2022-12-18T02:34:15;28.40;;;18.13;;
11100;SDS011;5604;50.722;7.078;2022-12-18T02:36:45;29.07;;;17.40;;
11100;SDS011;5604;50.722;7.078;2022-12-18T02:39:14;33.13;;;17.70;;
11100;SDS011;5604;50.722;7.078;2022-12-18T02:41:56;31.27;;;18.37;;
11100;SDS011;5604;50.722;7.078;2022-12-18T02:44:25;29.63;;;16.90;;
11100;SDS011;5604;50.722;7.078;2022-12-18T02:46:54;32.00;;;19.03;;
11100;SDS011;5604;50.722;7.078;2022-12-18T02:49:26;31.97;;;18.50;;
11100;SDS011;5604;50.722;7.078;2022-12-18T02:52:01;31.67;;;17.57;;
11100;SDS011;5604;50.722;7.078;2022-12-18T02:54:41;30.10;;;19.13;;
11100;SDS011;5604;50.722;7.078;2022-12-18T02:57:23;31.70;;;17.93;;
11100;SDS011;5604;50.722;7.078;2022-12-18T02:59:58;31.87;;;17.50;;
11100;SDS011;5604;50.722;7.078;2022-12-18T03:02:29;26.43;;;17.77;;
11100;SDS011;5604;50.722;7.078;2022-12-18T03:05:01;31.77;;;17.67;;
11100;SDS011;5604;50.722;7.078;2022-12-18T03:07:37;29.73;;;18.57;;
11100;SDS011;5604;50.722;7.078;2022-12-18T03:10:11;32.27;;;19.57;;
11100;SDS011;5604;50.722;7.078;2022-12-18T03:12:44;31.80;;;17.57;;
11100;SDS011;5604;50.722;7.078;2022-12-18T03:15:16;36.17;;;18.97;;
11100;SDS011;5604;50.722;7.078;2022-12-18T03:17:54;28.77;;;16.93;;
11100;SDS011;5604;50.722;7.078;2022-12-18T03:20:26;31.30;;;17.57;;
11100;SDS011;5604;50.722;7.078;2022-12-18T03:22:57;35.40;;;18.23;;
11100;SDS011;5604;50.722;7.078;2022-12-18T03:25:32;29.77;;;16.63;;
11100;SDS011;5604;50.722;7.078;2022-12-18T03:28:02;30.70;;;17.60;;
11100;SDS011;5604;50.722;7.078;2022-12-18T03:30:32;29.80;;;17.73;;
11100;SDS011;5604;50.722;7.078;2022-12-18T03:33:02;29.83;;;17.73;;
11100;SDS011;5604;50.722;7.078;2022-12-18T03:35:38;30.23;;;17.40;;
11100;SDS011;5604;50.722;7.078;2022-12-18T03:38:07;33.30;;;18.13;;
11100;SDS011;5604;50.722;7.078;2022-12-18T03:40:43;31.70;;;16.80;;
11100;SDS011;5604;50.722;7.078;2022-12-18T03:43:18;30.40;;;18.00;;
11100;SDS011;5604;50.722;7.078;2022-12-18T03:45:50;27.87;;;16.67;;
11100;SDS011;5604;50.722;7.078;2022-12-18T03:48:22;33.73;;;18.83;;
11100;SDS011;5604;50.722;7.078;2022-12-18T03:50:59;28.00;;;18.03;;
11100;SDS011;5604;50.722;7.078;2022-12-18T03:53:32;32.40;;;17.07;;
11100;SDS011;5604;50.722;7.078;2022-12-18T03:56:04;32.13;;;18.03;;
11100;SDS011;5604;50.722;7.078;2022-12-18T03:58:38;29.57;;;17.83;;
11100;SDS011;5604;50.722;7.078;2022-12-18T04:01:16;32.90;;;18.47;;
11100;SDS011;5604;50.722;7.078;2022-12-18T04:03:46;30.47;;;17.10;;
11100;SDS011;5604;50.722;7.078;2022-12-18T04:06:18;28.27;;;18.27;;
11100;SDS011;5604;50.722;7.078;2022-12-18T04:08:46;34.53;;;18.00;;
11100;SDS011;5604;50.722;7.078;2022-12-18T04:11:19;32.10;;;17.70;;
11100;SDS011;5604;50.722;7.078;2022-12-18T04:13:49;29.97;;;17.93;;
11100;SDS011;5604;50.722;7.078;2022-12-18T04:16:21;29.47;;;18.97;;
11100;SDS011;5604;50.722;7.078;2022-12-18T04:18:53;27.87;;;16.43;;
11100;SDS011;5604;50.722;7.078;2022-12-18T04:21:23;27.70;;;17.13;;
11100;SDS011;5604;50.722;7.078;2022-12-18T04:23:52;31.70;;;17.73;;
11100;SDS011;5604;50.722;7.078;2022-12-18T04:26:22;27.30;;;17.20;;
11100;SDS011;5604;50.722;7.078;2022-12-18T04:29:01;31.10;;;17.13;;
11100;SDS011;5604;50.722;7.078;2022-12-18T04:31:29;32.43;;;17.17;;
11100;SDS011;5604;50.722;7.078;2022-12-18T04:33:57;28.70;;;17.73;;
11100;SDS011;5604;50.722;7.078;2022-12-18T04:36:27;29.27;;;17.30;;
11100;SDS011;5604;50.722;7.078;2022-12-18T04:38:55;28.67;;;16.50;;
11100;SDS011;5604;50.722;7.078;2022-12-18T04:41:24;32.40;;;18.00;;
11100;SDS011;5604;50.722;7.078;2022-12-18T04:43:53;31.60;;;17.53;;
11100;SDS011;5604;50.722;7.078;2022-12-18T04:46:22;32.10;;;18.43;;
11100;SDS011;5604;50.722;7.078;2022-12-18T04:48:50;30.37;;;17.57;;
11100;SDS011;5604;50.722;7.078;2022-12-18T04:51:18;30.23;;;17.90;;
11100;SDS011;5604;50.722;7.078;2022-12-18T04:53:52;31.33;;;17.83;;
11100;SDS011;5604;50.722;7.078;2022-12-18T04:56:20;32.70;;;18.70;;
11100;SDS011;5604;50.722;7.078;2022-12-18T04:58:48;33.53;;;19.90;;
11100;SDS011;5604;50.722;7.078;2022-12-18T05:01:18;35.70;;;19.93;;
11100;SDS011;5604;50.722;7.078;2022-12-18T05:03:48;31.00;;;18.20;;
11100;SDS011;5604;50.722;7.078;2022-12-18T05:06:16;35.13;;;19.50;;
11100;SDS011;5604;50.722;7.078;2022-12-18T05:08:44;34.73;;;19.87;;
11100;SDS011;5604;50.722;7.078;2022-12-18T05:11:13;33.73;;;18.77;;
11100;SDS011;5604;50.722;7.078;2022-12-18T05:13:42;33.77;;;19.43;;
11100;SDS011;5604;50.722;7.078;2022-12-18T05:16:11;32.17;;;19.27;;
11100;SDS011;5604;50.722;7.078;2022-12-18T05:18:39;32.73;;;18.67;;
11100;SDS011;5604;50.722;7.078;2022-12-18T05:21:09;35.90;;;19.07;;
11100;SDS011;5604;50.722;7.078;2022-12-18T05:23:37;29.83;;;18.60;;
11100;SDS011;5604;50.722;7.078;2022-12-18T05:26:06;35.13;;;19.37;;
11100;SDS011;5604;50.722;7.078;2022-12-18T05:28:35;31.07;;;18.07;;
11100;SDS011;5604;50.722;7.078;2022-12-18T05:31:03;31.53;;;17.70;;
11100;SDS011;5604;50.722;7.078;2022-12-18T05:33:33;31.03;;;17.43;;
11100;SDS011;5604;50.722;7.078;2022-12-18T05:36:03;25.07;;;17.50;;
11100;SDS011;5604;50.722;7.078;2022-12-18T05:38:34;33.80;;;19.37;;
11100;SDS011;5604;50.722;7.078;2022-12-18T05:41:03;38.60;;;19.70;;
11100;SDS011;5604;50.722;7.078;2022-12-18T05:43:33;35.00;;;19.37;;
11100;SDS011;5604;50.722;7.078;2022-12-18T05:46:03;33.13;;;17.87;;
11100;SDS011;5604;50.722;7.078;2022-12-18T05:48:32;31.70;;;18.73;;
11100;SDS011;5604;50.722;7.078;2022-12-18T05:51:04;33.27;;;18.17;;
11100;SDS011;5604;50.722;7.078;2022-12-18T05:53:35;34.67;;;20.57;;
11100;SDS011;5604;50.722;7.078;2022-12-18T05:56:05;29.60;;;18.30;;
11100;SDS011;5604;50.722;7.078;2022-12-18T05:58:35;30.33;;;18.53;;
11100;SDS011;5604;50.722;7.078;2022-12-18T06:01:08;35.77;;;19.17;;
11100;SDS011;5604;50.722;7.078;2022-12-18T06:03:37;28.30;;;17.67;;
11100;SDS011;5604;50.722;7.078;2022-12-18T06:06:12;32.70;;;17.90;;
11100;SDS011;5604;50.722;7.078;2022-12-18T06:08:42;32.93;;;18.90;;
11100;SDS011;5604;50.722;7.078;2022-12-18T06:11:12;29.67;;;19.63;;
11100;SDS011;5604;50.722;7.078;2022-12-18T06:13:40;38.70;;;19.30;;
11100;SDS011;5604;50.722;7.078;2022-12-18T06:16:08;33.60;;;18.90;;
11100;SDS011;5604;50.722;7.078;2022-12-18T06:18:37;29.20;;;18.67;;
11100;SDS011;5604;50.722;7.078;2022-12-18T06:21:05;35.63;;;18.97;;
11100;SDS011;5604;50.722;7.078;2022-12-18T06:23:33;34.43;;;19.40;;
11100;SDS011;5604;50.722;7.078;2022-12-18T06:26:07;33.03;;;19.30;;
11100;SDS011;5604;50.722;7.078;2022-12-18T06:28:36;35.40;;;18.20;;
11100;SDS011;5604;50.722;7.078;2022-12-18T06:31:04;29.07;;;17.73;;
11100;SDS011;5604;50.722;7.078;2022-12-18T06:33:33;35.10;;;19.30;;
11100;SDS011;5604;50.722;7.078;2022-12-18T06:36:03;33.30;;;19.27;;
11100;SDS011;5604;50.722;7.078;2022-12-18T06:38:33;33.43;;;18.87;;
11100;SDS011;5604;50.722;7.078;2022-12-18T06:41:07;32.40;;;19.40;;
11100;SDS011;5604;50.722;7.078;2022-12-18T06:43:35;31.30;;;18.40;;
11100;SDS011;5604;50.722;7.078;2022-12-18T06:46:04;32.47;;;19.50;;
11100;SDS011;5604;50.722;7.078;2022-12-18T06:48:33;35.53;;;19.53;;
11100;SDS011;5604;50.722;7.078;2022-12-18T06:51:01;34.93;;;19.70;;
11100;SDS011;5604;50.722;7.078;2022-12-18T06:53:29;36.13;;;20.10;;
11100;SDS011;5604;50.722;7.078;2022-12-18T06:56:00;33.30;;;18.80;;
11100;SDS011;5604;50.722;7.078;2022-12-18T06:58:36;29.87;;;17.93;;
11100;SDS011;5604;50.722;7.078;2022-12-18T07:01:05;33.50;;;19.77;;
11100;SDS011;5604;50.722;7.078;2022-12-18T07:03:34;30.30;;;18.90;;
11100;SDS011;5604;50.722;7.078;2022-12-18T07:06:03;35.40;;;19.13;;
11100;SDS011;5604;50.722;7.078;2022-12-18T07:08:32;32.30;;;19.37;;
11100;SDS011;5604;50.722;7.078;2022-12-18T07:11:02;31.43;;;20.07;;
11100;SDS011;5604;50.722;7.078;2022-12-18T07:13:31;30.97;;;19.77;;
11100;SDS011;5604;50.722;7.078;2022-12-18T07:16:05;30.57;;;18.53;;
11100;SDS011;5604;50.722;7.078;2022-12-18T07:18:43;29.93;;;18.43;;
11100;SDS011;5604;50.722;7.078;2022-12-18T07:21:12;31.37;;;18.60;;
11100;SDS011;5604;50.722;7.078;2022-12-18T07:23:41;33.87;;;20.60;;
11100;SDS011;5604;50.722;7.078;2022-12-18T07:26:10;35.07;;;20.03;;
11100;SDS011;5604;50.722;7.078;2022-12-18T07:28:39;36.93;;;20.87;;
11100;SDS011;5604;50.722;7.078;2022-12-18T07:31:10;31.63;;;18.17;;
11100;SDS011;5604;50.722;7.078;2022-12-18T07:33:39;34.40;;;20.77;;
11100;SDS011;5604;50.722;7.078;2022-12-18T07:36:09;34.33;;;20.57;;
11100;SDS011;5604;50.722;7.078;2022-12-18T07:38:37;29.07;;;18.57;;
11100;SDS011;5604;50.722;7.078;2022-12-18T07:41:06;34.40;;;20.47;;
11100;SDS011;5604;50.722;7.078;2022-12-18T07:43:35;30.87;;;19.93;;
11100;SDS011;5604;50.722;7.078;2022-12-18T07:46:04;33.07;;;20.23;;
11100;SDS011;5604;50.722;7.078;2022-12-18T07:48:34;29.83;;;18.57;;
11100;SDS011;5604;50.722;7.078;2022-12-18T07:51:03;31.13;;;19.40;;
11100;SDS011;5604;50.722;7.078;2022-12-18T07:53:32;32.20;;;19.70;;
11100;SDS011;5604;50.722;7.078;2022-12-18T07:56:02;31.97;;;17.93;;
11100;SDS011;5604;50.722;7.078;2022-12-18T07:58:52;34.87;;;19.47;;
11100;SDS011;5604;50.722;7.078;2022-12-18T08:01:21;29.83;;;19.17;;
11100;SDS011;5604;50.722;7.078;2022-12-18T08:03:50;31.80;;;19.67;;
11100;SDS011;5604;50.722;7.078;2022-12-18T08:06:19;35.33;;;19.23;;
11100;SDS011;5604;50.722;7.078;2022-12-18T08:08:50;33.80;;;19.10;;
11100;SDS011;5604;50.722;7.078;2022-12-18T08:11:19;26.67;;;17.83;;
11100;SDS011;5604;50.722;7.078;2022-12-18T08:13:48;30.03;;;18.63;;
11100;SDS011;5604;50.722;7.078;2022-12-18T08:16:16;31.93;;;18.97;;
11100;SDS011;5604;50.722;7.078;2022-12-18T08:18:45;29.03;;;17.93;;
11100;SDS011;5604;50.722;7.078;2022-12-18T08:21:17;26.83;;;17.70;;
11100;SDS011;5604;50.722;7.078;2022-12-18T08:23:48;29.23;;;17.83;;
11100;SDS011;5604;50.722;7.078;2022-12-18T08:26:17;30.53;;;18.40;;
11100;SDS011;5604;50.722;7.078;2022-12-18T08:28:47;29.70;;;17.80;;
11100;SDS011;5604;50.722;7.078;2022-12-18T08:31:16;28.73;;;17.70;;
11100;SDS011;5604;50.722;7.078;2022-12-18T08:33:45;25.27;;;16.17;;
11100;SDS011;5604;50.722;7.078;2022-12-18T08:36:17;30.20;;;19.00;;
11100;SDS011;5604;50.722;7.078;2022-12-18T08:38:45;30.17;;;17.47;;
11100;SDS011;5604;50.722;7.078;2022-12-18T08:41:14;27.13;;;18.43;;
11100;SDS011;5604;50.722;7.078;2022-12-18T08:43:43;28.37;;;17.60;;
11100;SDS011;5604;50.722;7.078;2022-12-18T08:46:31;26.47;;;17.17;;
11100;SDS011;5604;50.722;7.078;2022-12-18T08:49:00;25.70;;;15.90;;
11100;SDS011;5604;50.722;7.078;2022-12-18T08:51:30;27.03;;;17.63;;
11100;SDS011;5604;50.722;7.078;2022-12-18T08:53:59;24.03;;;15.37;;
11100;SDS011;5604;50.722;7.078;2022-12-18T08:56:28;26.50;;;17.47;;
11100;SDS011;5604;50.722;7.078;2022-12-18T08:58:56;21.53;;;16.00;;
11100;SDS011;5604;50.722;7.078;2022-12-18T09:01:25;25.03;;;17.33;;
11100;SDS011;5604;50.722;7.078;2022-12-18T09:03:53;25.53;;;16.00;;
11100;SDS011;5604;50.722;7.078;2022-12-18T09:06:22;24.47;;;15.77;;
11100;SDS011;5604;50.722;7.078;2022-12-18T09:08:51;25.37;;;15.17;;
11100;SDS011;5604;50.722;7.078;2022-12-18T09:11:21;29.17;;;16.63;;
11100;SDS011;5604;50.722;7.078;2022-12-18T09:13:50;27.23;;;15.70;;
11100;SDS011;5604;50.722;7.078;2022-12-18T09:16:18;22.87;;;15.97;;
11100;SDS011;5604;50.722;7.078;2022-12-18T09:18:50;23.77;;;15.07;;
11100;SDS011;5604;50.722;7.078;2022-12-18T09:21:20;23.17;;;15.53;;
11100;SDS011;5604;50.722;7.078;2022-12-18T09:23:48;24.43;;;15.70;;
11100;SDS011;5604;50.722;7.078;2022-12-18T09:26:18;23.83;;;16.03;;
11100;SDS011;5604;50.722;7.078;2022-12-18T09:28:46;25.93;;;15.47;;
11100;SDS011;5604;50.722;7.078;2022-12-18T09:31:15;25.57;;;16.10;;
11100;SDS011;5604;50.722;7.078;2022-12-18T09:33:43;23.97;;;16.37;;
11100;SDS011;5604;50.722;7.078;2022-12-18T09:36:13;27.10;;;16.80;;
11100;SDS011;5604;50.722;7.078;2022-12-18T09:38:42;26.03;;;16.83;;
11100;SDS011;5604;50.722;7.078;2022-12-18T09:41:15;23.40;;;16.60;;
11100;SDS011;5604;50.722;7.078;2022-12-18T09:43:56;26.90;;;16.63;;
11100;SDS011;5604;50.722;7.078;2022-12-18T09:46:27;24.50;;;15.10;;
11100;SDS011;5604;50.722;7.078;2022-12-18T09:48:58;22.83;;;16.20;;
11100;SDS011;5604;50.722;7.078;2022-12-18T09:51:33;23.87;;;15.70;;
11100;SDS011;5604;50.722;7.078;2022-12-18T09:54:05;24.50;;;15.63;;
11100;SDS011;5604;50.722;7.078;2022-12-18T09:57:03;24.47;;;16.20;;
11100;SDS011;5604;50.722;7.078;2022-12-18T09:59:41;24.33;;;15.87;;
11100;SDS011;5604;50.722;7.078;2022-12-18T10:02:12;25.90;;;16.07;;
11100;SDS011;5604;50.722;7.078;2022-12-18T10:04:42;23.23;;;16.37;;
11100;SDS011;5604;50.722;7.078;2022-12-18T10:07:13;22.37;;;16.23;;
11100;SDS011;5604;50.722;7.078;2022-12-18T10:09:49;25.17;;;16.90;;
11100;SDS011;5604;50.722;7.078;2022-12-18T10:12:30;23.53;;;16.07;;
11100;SDS011;5604;50.722;7.078;2022-12-18T10:15:04;25.97;;;16.73;;
11100;SDS011;5604;50.722;7.078;2022-12-18T10:17:35;29.37;;;17.83;;
11100;SDS011;5604;50.722;7.078;2022-12-18T10:20:10;25.00;;;17.03;;
11100;SDS011;5604;50.722;7.078;2022-12-18T10:22:43;26.13;;;16.60;;
11100;SDS011;5604;50.722;7.078;2022-12-18T10:25:20;24.87;;;17.30;;
11100;SDS011;5604;50.722;7.078;2022-12-18T10:27:53;25.73;;;16.90;;
11100;SDS011;5604;50.722;7.078;2022-12-18T10:30:26;27.13;;;18.07;;
11100;SDS011;5604;50.722;7.078;2022-12-18T10:32:54;23.93;;;16.03;;
11100;SDS011;5604;50.722;7.078;2022-12-18T10:35:28;25.10;;;16.80;;
11100;SDS011;5604;50.722;7.078;2022-12-18T10:38:00;24.97;;;17.17;;
11100;SDS011;5604;50.722;7.078;2022-12-18T10:40:30;30.07;;;17.63;;
11100;SDS011;5604;50.722;7.078;2022-12-18T10:43:04;24.23;;;16.47;;
11100;SDS011;5604;50.722;7.078;2022-12-18T10:45:33;26.77;;;17.10;;
11100;SDS011;5604;50.722;7.078;2022-12-18T10:48:02;26.40;;;17.63;;
11100;SDS011;5604;50.722;7.078;2022-12-18T10:50:32;26.30;;;16.57;;
11100;SDS011;5604;50.722;7.078;2022-12-18T10:53:22;22.10;;;16.23;;
11100;SDS011;5604;50.722;7.078;2022-12-18T10:55:52;25.23;;;17.63;;
11100;SDS011;5604;50.722;7.078;2022-12-18T10:58:24;25.13;;;17.80;;
11100;SDS011;5604;50.722;7.078;2022-12-18T11:01:07;27.37;;;17.67;;
11100;SDS011;5604;50.722;7.078;2022-12-18T11:03:38;28.00;;;17.43;;
11100;SDS011;5604;50.722;7.078;2022-12-18T11:06:08;26.43;;;18.10;;
11100;SDS011;5604;50.722;7.078;2022-12-18T11:08:38;25.53;;;17.40;;
11100;SDS011;5604;50.722;7.078;2022-12-18T11:11:15;24.70;;;16.77;;
11100;SDS011;5604;50.722;7.078;2022-12-18T11:14:02;28.30;;;17.57;;
11100;SDS011;5604;50.722;7.078;2022-12-18T11:16:33;27.63;;;17.27;;
11100;SDS011;5604;50.722;7.078;2022-12-18T11:19:17;30.33;;;17.90;;
11100;SDS011;5604;50.722;7.078;2022-12-18T11:21:53;28.03;;;16.83;;
11100;SDS011;5604;50.722;7.078;2022-12-18T11:24:26;26.00;;;17.50;;
11100;SDS011;5604;50.722;7.078;2022-12-18T11:26:57;24.13;;;16.97;;
11100;SDS011;5604;50.722;7.078;2022-12-18T11:29:34;25.33;;;16.83;;
11100;SDS011;5604;50.722;7.078;2022-12-18T11:32:21;25.20;;;18.37;;
11100;SDS011;5604;50.722;7.078;2022-12-18T11:35:01;26.57;;;17.37;;
11100;SDS011;5604;50.722;7.078;2022-12-18T11:37:31;25.23;;;17.33;;
11100;SDS011;5604;50.722;7.078;2022-12-18T11:40:05;26.80;;;18.17;;
11100;SDS011;5604;50.722;7.078;2022-12-18T11:42:38;26.33;;;17.63;;
11100;SDS011;5604;50.722;7.078;2022-12-18T11:45:20;25.57;;;16.40;;
11100;SDS011;5604;50.722;7.078;2022-12-18T11:47:55;28.30;;;18.03;;
11100;SDS011;5604;50.722;7.078;2022-12-18T11:50:26;26.30;;;17.97;;
11100;SDS011;5604;50.722;7.078;2022-12-18T11:52:58;28.13;;;18.60;;
11100;SDS011;5604;50.722;7.078;2022-12-18T11:55:35;26.10;;;16.57;;
11100;SDS011;5604;50.722;7.078;2022-12-18T11:58:07;26.20;;;17.73;;
11100;SDS011;5604;50.722;7.078;2022-12-18T12:00:42;26.53;;;17.70;;
11100;SDS011;5604;50.722;7.078;2022-12-18T12:06:16;29.10;;;18.30;;
11100;SDS011;5604;50.722;7.078;2022-12-18T12:08:51;26.47;;;17.83;;
11100;SDS011;5604;50.722;7.078;2022-12-18T12:11:27;24.83;;;18.33;;
11100;SDS011;5604;50.722;7.078;2022-12-18T12:14:04;29.67;;;18.27;;
11100;SDS011;5604;50.722;7.078;2022-12-18T12:16:49;23.83;;;16.93;;
11100;SDS011;5604;50.722;7.078;2022-12-18T12:19:25;24.47;;;17.53;;
11100;SDS011;5604;50.722;7.078;2022-12-18T12:22:03;25.97;;;19.00;;
11100;SDS011;5604;50.722;7.078;2022-12-18T12:24:39;26.17;;;18.10;;
11100;SDS011;5604;50.722;7.078;2022-12-18T12:27:15;25.63;;;17.77;;
11100;SDS011;5604;50.722;7.078;2022-12-18T12:29:50;31.07;;;19.07;;
11100;SDS011;5604;50.722;7.078;2022-12-18T12:32:29;26.03;;;18.13;;
11100;SDS011;5604;50.722;7.078;2022-12-18T12:35:09;30.97;;;19.17;;
11100;SDS011;5604;50.722;7.078;2022-12-18T12:37:46;29.50;;;18.83;;
11100;SDS011;5604;50.722;7.078;2022-12-18T12:40:23;30.80;;;18.33;;
11100;SDS011;5604;50.722;7.078;2022-12-18T12:43:19;26.27;;;18.53;;
11100;SDS011;5604;50.722;7.078;2022-12-18T12:45:51;28.07;;;19.03;;
11100;SDS011;5604;50.722;7.078;2022-12-18T12:48:27;30.20;;;19.30;;
11100;SDS011;5604;50.722;7.078;2022-12-18T12:51:12;27.50;;;18.63;;
11100;SDS011;5604;50.722;7.078;2022-12-18T12:53:43;30.77;;;19.87;;
11100;SDS011;5604;50.722;7.078;2022-12-18T12:56:13;26.57;;;18.33;;
11100;SDS011;5604;50.722;7.078;2022-12-18T12:58:48;34.37;;;20.13;;
11100;SDS011;5604;50.722;7.078;2022-12-18T13:01:25;32.93;;;18.80;;
11100;SDS011;5604;50.722;7.078;2022-12-18T13:04:03;26.33;;;18.57;;
11100;SDS011;5604;50.722;7.078;2022-12-18T13:06:39;31.40;;;20.33;;
11100;SDS011;5604;50.722;7.078;2022-12-18T13:09:11;26.60;;;17.70;;
11100;SDS011;5604;50.722;7.078;2022-12-18T13:11:40;30.70;;;20.33;;
11100;SDS011;5604;50.722;7.078;2022-12-18T13:14:28;28.60;;;18.97;;
11100;SDS011;5604;50.722;7.078;2022-12-18T13:17:14;28.60;;;18.23;;
11100;SDS011;5604;50.722;7.078;2022-12-18T13:20:10;28.80;;;19.53;;
11100;SDS011;5604;50.722;7.078;2022-12-18T13:22:43;25.93;;;17.23;;
11100;SDS011;5604;50.722;7.078;2022-12-18T13:25:30;28.43;;;19.33;;
11100;SDS011;5604;50.722;7.078;2022-12-18T13:28:05;31.23;;;19.77;;
11100;SDS011;5604;50.722;7.078;2022-12-18T13:30:46;29.07;;;19.57;;
11100;SDS011;5604;50.722;7.078;2022-12-18T13:33:36;30.03;;;19.60;;
11100;SDS011;5604;50.722;7.078;2022-12-18T13:36:31;33.70;;;19.63;;
11100;SDS011;5604;50.722;7.078;2022-12-18T13:45:35;28.43;;;18.77;;
11100;SDS011;5604;50.722;7.078;2022-12-18T13:50:56;30.03;;;19.93;;
11100;SDS011;5604;50.722;7.078;2022-12-18T13:53:29;28.77;;;20.30;;
11100;SDS011;5604;50.722;7.078;2022-12-18T13:56:01;31.73;;;20.10;;
11100;SDS011;5604;50.722;7.078;2022-12-18T13:58:31;37.67;;;20.50;;
11100;SDS011;5604;50.722;7.078;2022-12-18T14:00:59;30.77;;;19.23;;
11100;SDS011;5604;50.722;7.078;2022-12-18T14:03:29;31.67;;;20.33;;
11100;SDS011;5604;50.722;7.078;2022-12-18T14:06:02;30.10;;;20.83;;
11100;SDS011;5604;50.722;7.078;2022-12-18T14:08:34;31.33;;;19.07;;
11100;SDS011;5604;50.722;7.078;2022-12-18T14:11:06;33.73;;;20.93;;
11100;SDS011;5604;50.722;7.078;2022-12-18T14:13:38;34.93;;;22.07;;
11100;SDS011;5604;50.722;7.078;2022-12-18T14:16:12;31.23;;;20.37;;
11100;SDS011;5604;50.722;7.078;2022-12-18T14:18:44;37.37;;;22.00;;
11100;SDS011;5604;50.722;7.078;2022-12-18T14:21:20;33.97;;;21.77;;
11100;SDS011;5604;50.722;7.078;2022-12-18T14:24:04;29.10;;;20.07;;
11100;SDS011;5604;50.722;7.078;2022-12-18T14:26:33;33.67;;;21.03;;
11100;SDS011;5604;50.722;7.078;2022-12-18T14:29:18;32.20;;;19.77;;
11100;SDS011;5604;50.722;7.078;2022-12-18T14:34:43;34.97;;;21.53;;
11100;SDS011;5604;50.722;7.078;2022-12-18T14:37:12;35.27;;;21.57;;
11100;SDS011;5604;50.722;7.078;2022-12-18T14:39:53;33.80;;;21.73;;
11100;SDS011;5604;50.722;7.078;2022-12-18T14:42:23;36.47;;;21.43;;
11100;SDS011;5604;50.722;7.078;2022-12-18T14:48:08;31.43;;;20.13;;
11100;SDS011;5604;50.722;7.078;2022-12-18T14:50:55;33.07;;;20.53;;
11100;SDS011;5604;50.722;7.078;2022-12-18T14:53:28;32.47;;;20.87;;
11100;SDS011;5604;50.722;7.078;2022-12-18T14:56:10;31.60;;;20.50;;
11100;SDS011;5604;50.722;7.078;2022-12-18T14:58:49;35.67;;;21.63;;
11100;SDS011;5604;50.722;7.078;2022-12-18T15:01:23;31.90;;;20.77;;
11100;SDS011;5604;50.722;7.078;2022-12-18T15:03:54;35.07;;;21.30;;
11100;SDS011;5604;50.722;7.078;2022-12-18T15:06:25;32.80;;;20.47;;
11100;SDS011;5604;50.722;7.078;2022-12-18T15:08:55;30.10;;;20.87;;
11100;SDS011;5604;50.722;7.078;2022-12-18T15:11:30;34.27;;;21.97;;
11100;SDS011;5604;50.722;7.078;2022-12-18T15:17:03;33.43;;;20.57;;
11100;SDS011;5604;50.722;7.078;2022-12-18T15:19:35;31.70;;;21.20;;
11100;SDS011;5604;50.722;7.078;2022-12-18T15:22:12;33.17;;;21.17;;
11100;SDS011;5604;50.722;7.078;2022-12-18T15:24:47;32.03;;;21.27;;
11100;SDS011;5604;50.722;7.078;2022-12-18T15:27:22;31.03;;;19.77;;
11100;SDS011;5604;50.722;7.078;2022-12-18T15:30:01;33.10;;;23.10;;
11100;SDS011;5604;50.722;7.078;2022-12-18T15:32:50;31.67;;;21.00;;
11100;SDS011;5604;50.722;7.078;2022-12-18T15:35:20;32.67;;;21.47;;
11100;SDS011;5604;50.722;7.078;2022-12-18T15:37:49;36.60;;;22.23;;
11100;SDS011;5604;50.722;7.078;2022-12-18T15:40:19;34.30;;;20.90;;
11100;SDS011;5604;50.722;7.078;2022-12-18T15:42:51;32.17;;;21.37;;
11100;SDS011;5604;50.722;7.078;2022-12-18T15:45:39;32.80;;;20.90;;
11100;SDS011;5604;50.722;7.078;2022-12-18T15:48:17;34.20;;;21.27;;
11100;SDS011;5604;50.722;7.078;2022-12-18T15:50:48;31.80;;;20.83;;
11100;SDS011;5604;50.722;7.078;2022-12-18T15:53:26;31.33;;;21.07;;
11100;SDS011;5604;50.722;7.078;2022-12-18T15:56:04;37.40;;;22.80;;
11100;SDS011;5604;50.722;7.078;2022-12-18T15:58:57;30.03;;;19.97;;
11100;SDS011;5604;50.722;7.078;2022-12-18T16:01:26;35.33;;;22.03;;
11100;SDS011;5604;50.722;7.078;2022-12-18T16:03:55;37.97;;;22.50;;
11100;SDS011;5604;50.722;7.078;2022-12-18T16:06:24;31.67;;;20.63;;
11100;SDS011;5604;50.722;7.078;2022-12-18T16:09:01;34.00;;;22.30;;
11100;SDS011;5604;50.722;7.078;2022-12-18T16:11:30;37.60;;;21.97;;
11100;SDS011;5604;50.722;7.078;2022-12-18T16:14:13;35.87;;;22.57;;